createdAt,value
2022-12-01T00:00:05.557Z,80.24
2022-12-01T00:03:13.621Z,81.12
2022-12-01T00:06:20.877Z,78.37
2022-12-01T00:09:46.852Z,80.05
2022-12-01T00:12:49.964Z,82.52
2022-12-01T00:15:57.146Z,82.96
2022-12-01T00:18:59.739Z,85.77
2022-12-01T00:22:02.377Z,87.47
2022-12-01T00:25:11.309Z,87.54
2022-12-01T00:28:18.537Z,89.68
2022-12-01T00:31:36.273Z,89.62
2022-12-01T00:34:38.934Z,94.69
2022-12-01T00:37:47.883Z,95.09
2022-12-01T00:40:55.915Z,96.12
2022-12-01T00:44:02.315Z,97.46
2022-12-01T00:47:05.772Z,96.64
2022-12-01T00:50:11.846Z,98.12
2022-12-01T00:53:16.460Z,98.35
2022-12-01T00:56:19.213Z,98.24
2022-12-01T00:59:23.362Z,96.26
2022-12-01T01:02:28.873Z,97.78
2022-12-01T01:05:38.767Z,94.83
2022-12-01T01:08:43.189Z,97.61
2022-12-01T01:11:45.876Z,100.00
2022-12-01T01:14:48.583Z,100.00
2022-12-01T01:17:52.180Z,93.97
2022-12-01T01:21:10.004Z,93.44
2022-12-01T01:24:12.222Z,98.30
2022-12-01T01:27:17.460Z,98.42
2022-12-01T01:30:22.613Z,95.38
2022-12-01T01:33:25.542Z,89.94
2022-12-01T01:36:28.463Z,91.46
2022-12-01T01:39:31.552Z,94.89
2022-12-01T01:42:39.141Z,95.15
2022-12-01T01:45:41.349Z,92.44
2022-12-01T01:48:46.633Z,93.59
2022-12-01T01:52:00.907Z,96.75
2022-12-01T01:55:03.590Z,95.95
2022-12-01T01:58:09.395Z,96.74
2022-12-01T02:01:12.250Z,98.62
2022-12-01T02:04:18.413Z,100.00
2022-12-01T02:07:24.533Z,100.00
2022-12-01T02:10:50.471Z,100.00
2022-12-01T02:14:01.575Z,100.00
2022-12-01T02:17:21.377Z,100.00
2022-12-01T02:20:39.916Z,100.00
2022-12-01T02:24:01.424Z,100.00
2022-12-01T02:27:14.427Z,100.00
2022-12-01T02:30:25.784Z,100.00
2022-12-01T02:33:37.112Z,100.00
2022-12-01T02:36:56.586Z,100.00
2022-12-01T02:40:04.089Z,100.00
2022-12-01T02:43:25.560Z,100.00
2022-12-01T02:46:32.061Z,100.00
2022-12-01T02:49:51.686Z,100.00
2022-12-01T02:52:56.838Z,100.00
2022-12-01T02:56:07.759Z,100.00
2022-12-01T02:59:14.533Z,100.00
2022-12-01T03:02:32.532Z,100.00
2022-12-01T03:05:51.598Z,100.00
2022-12-01T03:09:10.059Z,100.00
2022-12-01T03:12:23.498Z,100.00
2022-12-01T03:15:49.697Z,100.00
2022-12-01T03:19:17.733Z,100.00
2022-12-01T03:22:38.656Z,100.00
2022-12-01T03:25:42.853Z,100.00
2022-12-01T03:29:17.927Z,100.00
2022-12-01T03:32:40.742Z,100.00
2022-12-01T03:35:53.428Z,100.00
2022-12-01T03:39:09.288Z,100.00
2022-12-01T03:42:18.283Z,100.00
2022-12-01T03:45:32.333Z,100.00
2022-12-01T03:48:37.635Z,100.00
2022-12-01T03:51:50.330Z,100.00
2022-12-01T03:55:09.100Z,100.00
2022-12-01T03:58:14.550Z,100.00
2022-12-01T04:01:20.827Z,100.00
2022-12-01T04:04:27.141Z,100.00
2022-12-01T04:07:29.669Z,100.00
2022-12-01T04:10:37.417Z,100.00
2022-12-01T04:13:41.347Z,100.00
2022-12-01T04:16:48.230Z,100.00
2022-12-01T04:19:51.461Z,100.00
2022-12-01T04:22:59.055Z,100.00
2022-12-01T04:26:03.450Z,97.81
2022-12-01T04:29:12.301Z,95.93
2022-12-01T04:32:17.413Z,93.95
2022-12-01T04:35:19.894Z,93.23
2022-12-01T04:38:24.989Z,94.97
2022-12-01T04:41:35.460Z,94.28
2022-12-01T04:44:38.082Z,96.51
2022-12-01T04:47:44.241Z,99.05
2022-12-01T04:50:56.378Z,100.00
2022-12-01T04:54:06.972Z,97.62
2022-12-01T04:57:10.778Z,98.75
2022-12-01T05:00:18.603Z,97.98
2022-12-01T05:03:22.036Z,98.09
2022-12-01T05:06:28.961Z,100.00
2022-12-01T05:09:31.926Z,100.00
2022-12-01T05:12:34.555Z,100.00
2022-12-01T05:15:39.444Z,100.00
2022-12-01T05:18:42.378Z,100.00
2022-12-01T05:21:48.183Z,100.00
2022-12-01T05:24:53.347Z,100.00
2022-12-01T05:27:57.344Z,100.00
2022-12-01T05:31:04.187Z,100.00
2022-12-01T05:34:07.614Z,100.00
2022-12-01T05:37:12.145Z,100.00
2022-12-01T05:40:15.048Z,100.00
2022-12-01T05:43:25.417Z,100.00
2022-12-01T05:46:36.884Z,100.00
2022-12-01T05:49:40.387Z,100.00
2022-12-01T05:52:44.135Z,100.00
2022-12-01T05:55:47.719Z,100.00
2022-12-01T05:58:51.842Z,100.00
2022-12-01T06:01:55.300Z,100.00
2022-12-01T06:04:59.240Z,100.00
2022-12-01T06:08:03.179Z,100.00
2022-12-01T06:11:06.503Z,100.00
2022-12-01T06:14:09.339Z,100.00
2022-12-01T06:17:18.279Z,100.00
2022-12-01T06:20:25.365Z,100.00
2022-12-01T06:23:30.786Z,100.00
2022-12-01T06:26:33.434Z,100.00
2022-12-01T06:29:41.952Z,100.00
2022-12-01T06:32:45.719Z,100.00
2022-12-01T06:35:49.008Z,100.00
2022-12-01T06:38:56.536Z,100.00
2022-12-01T06:42:00.836Z,100.00
2022-12-01T06:45:07.548Z,100.00
2022-12-01T06:48:10.631Z,100.00
2022-12-01T06:51:14.513Z,100.00
2022-12-01T06:54:20.176Z,100.00
2022-12-01T06:57:25.334Z,100.00
2022-12-01T07:00:29.126Z,100.00
2022-12-01T07:03:35.993Z,100.00
2022-12-01T07:06:42.569Z,100.00
2022-12-01T07:09:45.384Z,100.00
2022-12-01T07:12:49.684Z,100.00
2022-12-01T07:15:53.536Z,100.00
2022-12-01T07:18:56.671Z,100.00
2022-12-01T07:22:00.183Z,100.00
2022-12-01T07:25:03.673Z,100.00
2022-12-01T07:28:08.211Z,100.00
2022-12-01T07:31:22.687Z,100.00
2022-12-01T07:34:26.522Z,100.00
2022-12-01T07:37:35.105Z,100.00
2022-12-01T07:40:44.369Z,100.00
2022-12-01T07:43:55.184Z,100.00
2022-12-01T07:46:59.741Z,100.00
2022-12-01T07:50:16.174Z,100.00
2022-12-01T07:53:36.543Z,100.00
2022-12-01T07:56:40.767Z,100.00
2022-12-01T07:59:45.571Z,100.00
2022-12-01T08:02:54.108Z,100.00
2022-12-01T08:06:04.115Z,99.46
2022-12-01T08:09:26.821Z,97.15
2022-12-01T08:12:32.697Z,95.59
2022-12-01T08:15:36.579Z,93.62
2022-12-01T08:18:48.826Z,95.28
2022-12-01T08:21:54.788Z,91.93
2022-12-01T08:24:58.317Z,92.45
2022-12-01T08:28:04.343Z,91.74
2022-12-01T08:31:21.639Z,89.63
2022-12-01T08:34:26.024Z,88.86
2022-12-01T08:37:31.115Z,89.24
2022-12-01T08:40:37.220Z,90.72
2022-12-01T08:43:57.255Z,88.92
2022-12-01T08:47:01.596Z,84.90
2022-12-01T08:50:05.802Z,83.55
2022-12-01T08:53:08.673Z,83.56
2022-12-01T08:56:13.461Z,83.57
2022-12-01T08:59:19.110Z,81.29
2022-12-01T09:02:24.262Z,80.96
2022-12-01T09:05:32.530Z,79.54
2022-12-01T09:08:45.767Z,79.84
2022-12-01T09:11:49.283Z,77.74
2022-12-01T09:14:52.283Z,78.19
2022-12-01T09:17:55.243Z,80.08
2022-12-01T09:20:58.872Z,80.87
2022-12-01T09:24:03.915Z,75.64
2022-12-01T09:27:06.668Z,77.34
2022-12-01T09:30:09.614Z,73.39
2022-12-01T09:33:14.904Z,73.64
2022-12-01T09:36:21.621Z,68.38
2022-12-01T09:39:26.213Z,68.68
2022-12-01T09:42:35.394Z,68.92
2022-12-01T09:45:40.803Z,70.29
2022-12-01T09:48:47.743Z,69.75
2022-12-01T09:51:54.763Z,68.67
2022-12-01T09:55:07.401Z,69.06
2022-12-01T09:58:18.277Z,69.40
2022-12-01T10:01:26.973Z,70.10
2022-12-01T10:04:35.766Z,71.21
2022-12-01T10:07:41.609Z,70.23
2022-12-01T10:10:46.812Z,70.40
2022-12-01T10:13:51.955Z,68.85
2022-12-01T10:17:01.281Z,69.71
2022-12-01T10:20:11.436Z,70.43
2022-12-01T10:23:21.500Z,70.33
2022-12-01T10:26:42.617Z,70.46
2022-12-01T10:29:49.777Z,72.01
2022-12-01T10:32:54.134Z,70.79
2022-12-01T10:36:01.488Z,68.24
2022-12-01T10:39:07.431Z,67.39
2022-12-01T10:42:34.130Z,67.18
2022-12-01T10:45:37.986Z,68.69
2022-12-01T10:48:56.311Z,67.02
2022-12-01T10:52:03.754Z,66.30
2022-12-01T10:55:28.164Z,67.10
2022-12-01T10:58:34.843Z,66.83
2022-12-01T11:01:38.064Z,65.08
2022-12-01T11:04:54.542Z,67.01
2022-12-01T11:07:58.412Z,67.87
2022-12-01T11:11:02.679Z,67.93
2022-12-01T11:14:26.858Z,66.71
2022-12-01T11:17:29.829Z,69.93
2022-12-01T11:20:39.794Z,72.22
2022-12-01T11:23:48.213Z,68.79
2022-12-01T11:26:51.821Z,69.08
2022-12-01T11:29:59.424Z,70.54
2022-12-01T11:33:05.781Z,70.84
2022-12-01T11:36:16.009Z,68.99
2022-12-01T11:39:25.277Z,69.21
2022-12-01T11:42:30.745Z,68.50
2022-12-01T11:45:41.288Z,68.48
2022-12-01T11:48:57.199Z,68.67
2022-12-01T11:52:17.010Z,67.00
2022-12-01T11:55:21.622Z,66.25
2022-12-01T11:58:25.024Z,67.11
2022-12-01T12:01:47.832Z,67.36
2022-12-01T12:05:01.077Z,67.19
2022-12-01T12:08:08.777Z,66.71
2022-12-01T12:11:17.196Z,69.04
2022-12-01T12:14:23.269Z,68.44
2022-12-01T12:17:49.391Z,69.93
2022-12-01T12:21:11.014Z,69.15
2022-12-01T12:24:37.989Z,69.66
2022-12-01T12:27:55.404Z,69.95
2022-12-01T12:30:58.852Z,68.42
2022-12-01T12:34:15.214Z,69.09
2022-12-01T12:37:27.021Z,69.17
2022-12-01T12:40:30.085Z,67.79
2022-12-01T12:43:34.199Z,67.30
2022-12-01T12:46:43.389Z,67.47
2022-12-01T12:50:05.752Z,69.23
2022-12-01T12:53:16.789Z,67.67
2022-12-01T12:56:21.733Z,68.07
2022-12-01T12:59:31.711Z,68.88
2022-12-01T13:02:53.507Z,67.28
2022-12-01T13:06:18.694Z,68.16
2022-12-01T13:09:24.043Z,67.73
2022-12-01T13:12:31.048Z,68.48
2022-12-01T13:15:37.192Z,68.49
2022-12-01T13:18:45.589Z,67.75
2022-12-01T13:21:51.623Z,69.27
2022-12-01T13:24:54.042Z,69.20
2022-12-01T13:27:58.965Z,69.14
2022-12-01T13:31:12.556Z,68.81
2022-12-01T13:34:27.743Z,70.20
2022-12-01T13:37:34.961Z,69.37
2022-12-01T13:40:38.769Z,68.20
2022-12-01T13:43:57.540Z,68.56
2022-12-01T13:47:03.903Z,70.32
2022-12-01T13:50:25.382Z,70.31
2022-12-01T13:53:38.775Z,70.04
2022-12-01T13:56:59.397Z,70.51
2022-12-01T14:00:05.472Z,71.15
2022-12-01T14:03:17.780Z,70.17
2022-12-01T14:06:26.625Z,71.05
2022-12-01T14:09:32.789Z,69.25
2022-12-01T14:12:38.466Z,68.87
2022-12-01T14:15:43.016Z,69.04
2022-12-01T14:18:56.632Z,70.03
2022-12-01T14:22:01.156Z,72.18
2022-12-01T14:25:26.992Z,72.23
2022-12-01T14:28:48.155Z,72.86
2022-12-01T14:31:50.552Z,74.16
2022-12-01T14:34:56.680Z,75.33
2022-12-01T14:38:00.127Z,75.22
2022-12-01T14:41:11.206Z,76.27
2022-12-01T14:44:19.948Z,78.83
2022-12-01T14:47:43.902Z,77.81
2022-12-01T14:50:53.346Z,79.97
2022-12-01T14:54:01.971Z,80.97
2022-12-01T14:57:07.466Z,81.41
2022-12-01T15:00:21.571Z,81.82
2022-12-01T15:03:31.835Z,83.34
2022-12-01T15:06:36.625Z,82.88
2022-12-01T15:09:59.819Z,83.50
2022-12-01T15:13:16.026Z,84.42
2022-12-01T15:16:33.061Z,85.25
2022-12-01T15:19:39.411Z,85.31
2022-12-01T15:22:43.121Z,84.57
2022-12-01T15:25:46.508Z,83.94
2022-12-01T15:28:49.307Z,85.91
2022-12-01T15:31:57.230Z,86.52
2022-12-01T15:35:05.511Z,88.73
2022-12-01T15:38:16.801Z,87.65
2022-12-01T15:41:29.653Z,84.58
2022-12-01T15:44:35.064Z,84.88
2022-12-01T15:47:43.554Z,87.19
2022-12-01T15:50:51.078Z,85.53
2022-12-01T15:53:56.238Z,87.58
2022-12-01T15:57:03.959Z,87.13
2022-12-01T16:00:08.648Z,88.06
2022-12-01T16:03:14.609Z,89.07
2022-12-01T16:06:19.558Z,89.72
2022-12-01T16:09:26.119Z,83.30
2022-12-01T16:12:29.932Z,87.58
2022-12-01T16:15:42.747Z,88.52
2022-12-01T16:18:53.407Z,90.70
2022-12-01T16:22:02.541Z,88.93
2022-12-01T16:25:06.261Z,90.97
2022-12-01T16:28:23.901Z,91.98
2022-12-01T16:31:28.213Z,91.66
2022-12-01T16:34:46.037Z,91.63
2022-12-01T16:37:49.642Z,93.87
2022-12-01T16:40:57.053Z,95.82
2022-12-01T16:44:26.932Z,95.78
2022-12-01T16:47:26.381Z,96.55
2022-12-01T16:50:30.820Z,98.54
2022-12-01T16:53:34.023Z,99.15
2022-12-01T16:56:40.754Z,99.58
2022-12-01T16:59:49.812Z,100.00
2022-12-01T17:02:53.100Z,100.00
2022-12-01T17:06:19.214Z,100.00
2022-12-01T17:09:25.112Z,100.00
2022-12-01T17:12:29.626Z,100.00
2022-12-01T17:15:32.260Z,100.00
2022-12-01T17:18:36.953Z,99.54
2022-12-01T17:21:39.378Z,99.84
2022-12-01T17:24:42.611Z,100.00
2022-12-01T17:27:46.408Z,100.00
2022-12-01T17:30:52.312Z,100.00
2022-12-01T17:33:56.355Z,100.00
2022-12-01T17:37:00.430Z,100.00
2022-12-01T17:40:06.996Z,100.00
2022-12-01T17:43:28.936Z,100.00
2022-12-01T17:46:32.600Z,100.00
2022-12-01T17:49:36.331Z,100.00
2022-12-01T17:52:39.239Z,100.00
2022-12-01T17:55:49.021Z,100.00
2022-12-01T17:58:52.026Z,100.00
2022-12-01T18:01:55.390Z,100.00
2022-12-01T18:05:01.629Z,100.00
2022-12-01T18:08:07.885Z,100.00
2022-12-01T18:11:12.536Z,100.00
2022-12-01T18:14:19.628Z,100.00
2022-12-01T18:17:22.232Z,100.00
2022-12-01T18:20:29.523Z,100.00
2022-12-01T18:23:32.286Z,100.00
2022-12-01T18:26:34.740Z,100.00
2022-12-01T18:29:37.422Z,100.00
2022-12-01T18:32:53.224Z,100.00
2022-12-01T18:35:56.508Z,100.00
2022-12-01T18:38:59.749Z,100.00
2022-12-01T18:42:03.366Z,100.00
2022-12-01T18:45:06.615Z,100.00
2022-12-01T18:48:09.831Z,100.00
2022-12-01T18:51:13.656Z,100.00
2022-12-01T18:54:16.040Z,100.00
2022-12-01T18:57:20.785Z,100.00
2022-12-01T19:00:24.065Z,100.00
2022-12-01T19:03:29.516Z,100.00
2022-12-01T19:06:33.727Z,100.00
2022-12-01T19:09:36.598Z,100.00
2022-12-01T19:12:41.255Z,100.00
2022-12-01T19:15:44.518Z,100.00
2022-12-01T19:18:46.942Z,100.00
2022-12-01T19:21:50.898Z,100.00
2022-12-01T19:24:54.736Z,100.00
2022-12-01T19:27:59.225Z,100.00
2022-12-01T19:31:06.778Z,100.00
2022-12-01T19:34:10.449Z,100.00
2022-12-01T19:37:14.965Z,100.00
2022-12-01T19:40:17.860Z,100.00
2022-12-01T19:43:23.224Z,100.00
2022-12-01T19:46:29.556Z,100.00
2022-12-01T19:49:34.609Z,100.00
2022-12-01T19:52:37.546Z,100.00
2022-12-01T19:55:41.544Z,100.00
2022-12-01T19:58:44.791Z,100.00
2022-12-01T20:01:47.859Z,100.00
2022-12-01T20:04:52.743Z,100.00
2022-12-01T20:07:56.669Z,100.00
2022-12-01T20:11:05.153Z,100.00
2022-12-01T20:14:11.213Z,100.00
2022-12-01T20:17:16.113Z,100.00
2022-12-01T20:20:20.021Z,100.00
2022-12-01T20:23:22.966Z,100.00
2022-12-01T20:26:30.416Z,100.00
2022-12-01T20:29:35.284Z,100.00
2022-12-01T20:32:44.624Z,100.00
2022-12-01T20:35:47.405Z,100.00
2022-12-01T20:38:53.367Z,100.00
2022-12-01T20:41:56.770Z,100.00
2022-12-01T20:44:59.959Z,100.00
2022-12-01T20:48:09.315Z,100.00
2022-12-01T20:51:19.660Z,100.00
2022-12-01T20:54:29.070Z,100.00
2022-12-01T20:57:32.303Z,100.00
2022-12-01T21:00:40.913Z,100.00
2022-12-01T21:03:46.062Z,100.00
2022-12-01T21:06:51.513Z,100.00
2022-12-01T21:09:55.008Z,100.00
2022-12-01T21:13:18.923Z,100.00
2022-12-01T21:16:29.813Z,100.00
2022-12-01T21:19:45.240Z,100.00
2022-12-01T21:22:49.862Z,100.00
2022-12-01T21:25:56.646Z,100.00
2022-12-01T21:29:00.977Z,100.00
2022-12-01T21:32:12.607Z,100.00
2022-12-01T21:35:20.993Z,100.00
2022-12-01T21:38:23.823Z,100.00
2022-12-01T21:41:29.223Z,100.00
2022-12-01T21:44:39.487Z,100.00
2022-12-01T21:47:43.289Z,100.00
2022-12-01T21:50:52.282Z,100.00
2022-12-01T21:53:59.510Z,100.00
2022-12-01T21:57:22.422Z,100.00
2022-12-01T22:00:33.138Z,100.00
2022-12-01T22:03:40.374Z,100.00
2022-12-01T22:06:47.826Z,100.00
2022-12-01T22:09:52.658Z,100.00
2022-12-01T22:12:57.392Z,100.00
2022-12-01T22:16:01.567Z,100.00
2022-12-01T22:19:26.149Z,100.00
2022-12-01T22:22:33.876Z,100.00
2022-12-01T22:25:38.434Z,100.00
2022-12-01T22:28:42.139Z,100.00
2022-12-01T22:31:59.565Z,100.00
2022-12-01T22:35:22.635Z,100.00
2022-12-01T22:38:34.012Z,100.00
2022-12-01T22:41:36.785Z,100.00
2022-12-01T22:44:40.545Z,100.00
2022-12-01T22:47:45.033Z,100.00
2022-12-01T22:50:51.735Z,100.00
2022-12-01T22:54:03.712Z,100.00
2022-12-01T22:57:21.993Z,100.00
2022-12-01T23:00:30.475Z,100.00
2022-12-01T23:03:35.416Z,100.00
2022-12-01T23:06:58.194Z,100.00
2022-12-01T23:10:04.420Z,100.00
2022-12-01T23:13:15.311Z,100.00
2022-12-01T23:16:17.831Z,100.00
2022-12-01T23:19:23.055Z,100.00
2022-12-01T23:22:27.990Z,100.00
2022-12-01T23:25:31.722Z,100.00
2022-12-01T23:28:36.169Z,100.00
2022-12-01T23:31:39.038Z,100.00
2022-12-01T23:34:42.223Z,100.00
2022-12-01T23:37:50.804Z,100.00
2022-12-01T23:40:59.428Z,100.00
2022-12-01T23:44:05.030Z,100.00
2022-12-01T23:47:28.967Z,100.00
2022-12-01T23:50:32.209Z,100.00
2022-12-01T23:53:34.829Z,100.00
2022-12-01T23:56:38.415Z,100.00
2022-12-01T23:59:43.273Z,100.00
